Time;durP1;ratioP1;P1;durP2;ratioP2;P2;SDS_P1;SDS_P2;PMS_P1;PMS_P2;Temp;Humidity;BMP_temperature;BMP_pressure;BME280_temperature;BME280_humidity;BME280_pressure;Samples;Min_cycle;Max_cycle;Signal;HPM_P1;HPM_P2
2022/02/12 00:01:41;;;;;;;17.43;10.53;;;;;;;-0.65;78.58;102248.59;8604237;33;21362;-73
2022/02/12 00:06:44;;;;;;;18.60;10.40;;;;;;;-0.72;78.35;102239.81;8604710;33;20642;-73
2022/02/12 00:11:48;;;;;;;25.60;10.70;;;;;;;-0.70;78.66;102244.22;8603827;33;20231;-73
2022/02/12 00:16:51;;;;;;;22.27;10.50;;;;;;;-0.67;78.83;102244.19;8605750;33;20258;-74
2022/02/12 00:21:54;;;;;;;20.27;11.30;;;;;;;-0.66;79.01;102252.09;8610234;33;20278;-74
2022/02/12 00:26:58;;;;;;;20.73;12.90;;;;;;;-0.73;79.04;102239.81;8610001;33;20193;-74
2022/02/12 00:32:01;;;;;;;18.47;10.80;;;;;;;-0.84;79.34;102239.88;8592018;33;20207;-73
2022/02/12 00:37:04;;;;;;;25.07;11.83;;;;;;;-0.88;79.67;102234.59;8602401;33;21450;-74
2022/02/12 00:42:09;;;;;;;16.83;10.27;;;;;;;-0.84;79.17;102239.88;8603733;33;20243;-74
2022/02/12 00:47:12;;;;;;;19.30;10.00;;;;;;;-0.81;79.40;102231.06;8603320;33;20142;-74
2022/02/12 00:52:16;;;;;;;22.20;12.03;;;;;;;-0.89;79.30;102223.16;8602499;33;20468;-74
2022/02/12 00:57:21;;;;;;;21.80;10.93;;;;;;;-0.85;79.44;102227.56;8602783;33;21666;-74
2022/02/12 01:02:24;;;;;;;20.17;11.47;;;;;;;-0.85;79.39;102224.94;8601604;33;20227;-74
2022/02/12 01:07:28;;;;;;;21.27;11.20;;;;;;;-0.92;79.43;102217.91;8603240;33;20169;-75
2022/02/12 01:12:32;;;;;;;19.90;10.83;;;;;;;-0.93;79.56;102216.16;8602352;33;20138;-73
2022/02/12 01:17:37;;;;;;;19.93;10.27;;;;;;;-0.98;79.68;102217.94;8602184;33;21491;-74
2022/02/12 01:22:40;;;;;;;17.77;11.60;;;;;;;-0.98;79.45;102221.44;8601839;33;20181;-75
2022/02/12 01:27:45;;;;;;;24.80;12.37;;;;;;;-1.03;79.73;102225.00;8602003;33;21607;-73
2022/02/12 01:32:49;;;;;;;18.40;9.93;;;;;;;-1.04;79.80;102212.66;8601388;33;20662;-74
2022/02/12 01:37:53;;;;;;;20.17;10.97;;;;;;;-1.04;79.66;102221.47;8601561;33;20238;-74
2022/02/12 01:43:01;;;;;;;18.67;10.60;;;;;;;-1.06;79.85;102222.38;8601009;33;20145;-74
2022/02/12 01:48:05;;;;;;;19.97;10.10;;;;;;;-0.99;79.76;102209.16;8601357;33;20204;-74
2022/02/12 01:53:08;;;;;;;19.43;10.57;;;;;;;-0.96;79.51;102211.78;8601589;33;20198;-74
2022/02/12 01:58:13;;;;;;;19.53;10.40;;;;;;;-1.01;79.44;102203.00;8604850;33;20537;-74
2022/02/12 02:03:16;;;;;;;18.07;10.73;;;;;;;-1.11;79.19;102205.69;8602696;33;20224;-74
2022/02/12 02:08:19;;;;;;;20.37;10.17;;;;;;;-1.16;79.31;102205.69;8603250;33;20289;-74
2022/02/12 02:13:25;;;;;;;18.83;9.93;;;;;;;-1.23;79.61;102207.47;8602891;33;20193;-74
2022/02/12 02:18:28;;;;;;;17.53;10.13;;;;;;;-1.22;79.52;102208.34;8602436;33;20371;-74
2022/02/12 02:23:33;;;;;;;19.23;10.30;;;;;;;-1.27;79.76;102204.84;8602538;33;21480;-74
2022/02/12 02:28:37;;;;;;;17.77;10.10;;;;;;;-1.36;79.68;102199.59;8602730;33;20232;-74
2022/02/12 02:33:40;;;;;;;17.73;10.57;;;;;;;-1.40;79.83;102201.34;8602655;33;20220;-74
2022/02/12 02:38:45;;;;;;;24.93;11.43;;;;;;;-1.37;80.17;102203.09;8600149;33;20461;-74
2022/02/12 02:43:48;;;;;;;19.50;11.83;;;;;;;-1.36;79.91;102205.75;8602282;33;21157;-74
2022/02/12 02:48:52;;;;;;;25.23;13.20;;;;;;;-1.38;79.97;102196.94;8602302;33;22226;-74
2022/02/12 02:59:17;;;;;;;16.33;9.43;;;;;;;-1.25;80.25;102181.97;8546850;33;20682;-74
2022/02/12 03:04:21;;;;;;;25.13;9.70;;;;;;;-1.15;79.86;102174.91;8602242;33;20234;-74
2022/02/12 03:09:26;;;;;;;18.30;8.80;;;;;;;-1.06;79.70;102182.78;8601856;33;20181;-74
2022/02/12 03:14:29;;;;;;;13.67;8.47;;;;;;;-0.99;79.18;102181.88;8602413;33;20165;-74
2022/02/12 03:19:33;;;;;;;14.37;8.40;;;;;;;-1.00;78.65;102174.84;8601202;33;20158;-74
2022/02/12 03:24:37;;;;;;;17.00;7.80;;;;;;;-0.97;78.52;102174.84;8601792;33;20242;-74
2022/02/12 03:29:40;;;;;;;13.97;8.17;;;;;;;-0.88;78.05;102166.88;8607052;33;20173;-74
2022/02/12 03:34:43;;;;;;;19.87;9.10;;;;;;;-0.89;77.79;102148.41;8605469;33;20239;-74
2022/02/12 03:39:49;;;;;;;19.53;9.97;;;;;;;-1.10;77.45;102152.91;8604274;33;20976;-74
2022/02/12 03:44:52;;;;;;;13.67;8.47;;;;;;;-1.15;77.89;102159.97;8605517;33;20192;-74
2022/02/12 03:49:55;;;;;;;17.43;8.40;;;;;;;-1.10;78.09;102147.63;8606144;33;20146;-74
2022/02/12 03:55:00;;;;;;;20.17;8.07;;;;;;;-1.08;77.64;102150.25;8605737;33;20918;-74
2022/02/12 04:00:05;;;;;;;14.83;8.27;;;;;;;-1.16;77.54;102155.56;8606005;33;20284;-73
2022/02/12 04:05:15;;;;;;;16.77;8.90;;;;;;;-1.27;77.93;102139.78;8604553;33;20192;-73
2022/02/12 04:10:20;;;;;;;16.97;9.10;;;;;;;-1.30;78.13;102136.28;8603635;33;22130;-73
2022/02/12 04:15:25;;;;;;;14.27;8.37;;;;;;;-1.26;77.95;102131.00;8603918;33;21088;-73
2022/02/12 04:20:28;;;;;;;17.20;9.93;;;;;;;-1.21;78.15;102123.06;8603127;33;20189;-73
2022/02/12 04:25:33;;;;;;;16.00;9.90;;;;;;;-1.23;77.88;102123.09;8603405;33;20193;-73
2022/02/12 04:30:39;;;;;;;19.23;9.40;;;;;;;-1.24;77.53;102107.25;8602772;33;20192;-73
2022/02/12 04:35:42;;;;;;;16.83;9.50;;;;;;;-1.30;77.73;102102.88;8603299;33;20189;-73
2022/02/12 04:40:47;;;;;;;19.23;8.87;;;;;;;-1.46;77.74;102109.97;8603396;33;20459;-73
2022/02/12 04:45:50;;;;;;;16.77;9.13;;;;;;;-1.51;78.07;102108.22;8601673;33;20157;-73
2022/02/12 04:50:53;;;;;;;19.80;9.37;;;;;;;-1.58;78.05;102106.50;8603007;33;20157;-73
2022/02/12 04:55:58;;;;;;;22.43;10.63;;;;;;;-1.66;77.94;102101.25;8602890;33;20149;-73
2022/02/12 05:01:01;;;;;;;15.27;10.13;;;;;;;-1.71;78.28;102108.28;8602364;33;20203;-73
2022/02/12 05:06:04;;;;;;;18.20;9.57;;;;;;;-1.74;78.66;102108.31;8602209;33;20682;-75
2022/02/12 05:11:09;;;;;;;18.80;9.40;;;;;;;-1.69;78.77;102106.53;8601804;33;20247;-73
2022/02/12 05:16:13;;;;;;;21.47;9.47;;;;;;;-1.69;79.03;102107.41;8601604;33;20846;-73
2022/02/12 05:21:16;;;;;;;17.37;8.40;;;;;;;-1.70;78.90;102099.50;8601315;33;20146;-73
2022/02/12 05:26:21;;;;;;;15.77;8.13;;;;;;;-1.67;78.82;102088.97;8601158;33;20293;-73
2022/02/12 05:31:24;;;;;;;15.93;8.83;;;;;;;-1.63;78.89;102088.06;8601117;33;20791;-73
2022/02/12 05:36:27;;;;;;;13.80;8.77;;;;;;;-1.68;78.68;102082.81;8601706;33;20606;-74
2022/02/12 05:41:32;;;;;;;15.73;8.23;;;;;;;-1.74;78.50;102072.28;8601514;33;21962;-73
2022/02/12 05:46:35;;;;;;;17.37;8.47;;;;;;;-1.69;78.56;102078.44;8601028;33;20646;-73
2022/02/12 05:51:38;;;;;;;16.73;8.87;;;;;;;-1.65;78.40;102074.00;8600701;33;20212;-73
2022/02/12 05:56:42;;;;;;;17.53;8.53;;;;;;;-1.64;78.12;102067.88;8600868;33;20857;-73
2022/02/12 06:01:46;;;;;;;14.50;8.20;;;;;;;-1.67;78.38;102054.72;8600474;33;20238;-73
2022/02/12 06:06:49;;;;;;;13.97;8.00;;;;;;;-1.71;78.28;102047.69;8601413;33;20259;-72
2022/02/12 06:11:54;;;;;;;13.67;8.00;;;;;;;-1.79;77.71;102047.72;8599093;33;20256;-74
2022/02/12 06:16:58;;;;;;;13.73;8.17;;;;;;;-1.91;77.70;102051.25;8601088;33;20188;-74
2022/02/12 06:22:01;;;;;;;16.00;7.67;;;;;;;-1.94;77.57;102048.66;8600525;33;20286;-74
2022/02/12 06:27:06;;;;;;;19.27;9.23;;;;;;;-1.93;77.49;102042.47;8601033;33;20191;-74
2022/02/12 06:32:09;;;;;;;22.57;10.20;;;;;;;-1.91;77.48;102046.00;8601350;33;20440;-74
2022/02/12 06:37:12;;;;;;;19.43;8.40;;;;;;;-1.85;77.33;102045.09;8601654;33;20589;-73
2022/02/12 06:42:17;;;;;;;18.50;8.33;;;;;;;-1.80;76.94;102030.16;8600677;33;20228;-74
2022/02/12 06:47:20;;;;;;;13.87;7.83;;;;;;;-1.74;76.62;102040.66;8601215;33;20659;-73
2022/02/12 06:52:24;;;;;;;13.37;7.43;;;;;;;-1.69;76.32;102027.50;8601083;33;20192;-72
2022/02/12 06:57:29;;;;;;;8.40;5.00;;;;;;;-1.54;74.79;102027.41;8604165;33;20165;-73
2022/02/12 07:02:32;;;;;;;7.87;4.20;;;;;;;-1.36;72.95;102021.19;8608655;33;20207;-73
2022/02/12 07:07:44;;;;;;;7.40;4.40;;;;;;;-1.15;70.88;102027.19;8606089;33;20193;-73
2022/02/12 07:12:48;;;;;;;7.63;3.63;;;;;;;-1.03;70.18;102024.50;8604901;33;20189;-72
2022/02/12 07:17:53;;;;;;;16.03;4.53;;;;;;;-0.88;69.46;102021.72;8607207;33;20199;-75
2022/02/12 07:22:56;;;;;;;9.27;3.60;;;;;;;-0.45;68.21;102020.53;8605467;33;20300;-74
2022/02/12 07:28:01;;;;;;;5.83;3.57;;;;;;;-0.05;66.83;102023.66;8605949;33;20203;-73
2022/02/12 07:33:04;;;;;;;7.60;3.05;;;;;;;0.15;65.29;102016.34;8606869;33;20199;-73
2022/02/12 07:38:08;;;;;;;7.05;4.22;;;;;;;0.47;64.48;102019.53;8611517;33;20665;-74
2022/02/12 07:43:13;;;;;;;6.28;3.65;;;;;;;0.70;63.86;102011.25;8603685;33;20134;-74
2022/02/12 07:48:16;;;;;;;11.90;4.20;;;;;;;1.14;62.77;102004.44;8593642;33;20185;-73
2022/02/12 07:53:19;;;;;;;11.80;3.95;;;;;;;1.27;62.38;102003.34;8609846;33;20176;-74
2022/02/12 07:58:24;;;;;;;8.52;4.00;;;;;;;1.22;62.31;102008.69;8642260;33;21753;-74
2022/02/12 08:03:27;;;;;;;9.70;3.90;;;;;;;1.14;62.44;102007.06;8662118;33;20180;-76
2022/02/12 08:08:30;;;;;;;8.18;3.30;;;;;;;1.50;63.15;101997.63;8662277;33;20275;-75
2022/02/12 08:13:34;;;;;;;9.25;4.15;;;;;;;1.86;62.33;101990.78;8660940;33;20753;-74
2022/02/12 08:18:37;;;;;;;8.00;2.92;;;;;;;2.21;61.69;101986.56;8660092;33;20152;-75
2022/02/12 08:23:41;;;;;;;8.77;3.45;;;;;;;2.13;61.29;101993.81;8660601;33;20172;-73
2022/02/12 08:28:45;;;;;;;6.50;3.25;;;;;;;2.66;61.58;101985.63;8661045;33;20230;-76
2022/02/12 08:33:48;;;;;;;5.53;3.78;;;;;;;3.35;59.06;101976.91;8663979;33;20222;-74
2022/02/12 08:38:51;;;;;;;7.43;2.92;;;;;;;3.43;56.76;101976.72;8661586;33;20216;-74
2022/02/12 08:43:56;;;;;;;3.95;2.25;;;;;;;3.65;56.30;101959.28;8650900;33;20178;-75
2022/02/12 08:48:59;;;;;;;7.43;2.53;;;;;;;4.04;55.10;101972.38;8626741;33;20300;-74
2022/02/12 08:54:02;;;;;;;5.97;2.80;;;;;;;4.02;54.36;101966.22;8629559;33;20181;-75
2022/02/12 08:59:08;;;;;;;7.85;2.58;;;;;;;4.18;54.65;101961.34;8629244;33;20150;-74
2022/02/12 09:04:12;;;;;;;4.82;2.20;;;;;;;4.52;53.66;101955.84;8661267;33;20196;-75
2022/02/12 09:09:15;;;;;;;5.88;2.13;;;;;;;4.00;54.32;101949.44;8660737;33;20387;-74
2022/02/12 09:14:20;;;;;;;5.32;2.67;;;;;;;3.97;55.35;101946.00;8661282;33;20203;-74
2022/02/12 09:19:23;;;;;;;4.25;1.95;;;;;;;4.22;54.61;101959.44;8660148;33;20457;-75
2022/02/12 09:24:26;;;;;;;5.25;2.88;;;;;;;3.90;54.70;101947.97;8659005;33;20157;-74
2022/02/12 09:29:31;;;;;;;3.85;2.40;;;;;;;3.66;55.21;101936.22;8660181;33;20315;-73
2022/02/12 09:34:34;;;;;;;4.25;2.92;;;;;;;3.20;56.48;101940.09;8660244;33;20188;-75
2022/02/12 09:39:37;;;;;;;5.72;2.80;;;;;;;3.70;56.32;101916.59;8658780;33;20677;-74
2022/02/12 09:44:43;;;;;;;5.65;2.85;;;;;;;4.28;54.74;101919.34;8659732;33;20581;-74
2022/02/12 09:49:48;;;;;;;5.45;2.15;;;;;;;4.02;54.83;101914.81;8647792;33;20551;-74
2022/02/12 09:54:51;;;;;;;8.27;3.15;;;;;;;4.31;54.50;101911.31;8658886;33;20916;-73
2022/02/12 10:00:01;;;;;;;5.72;2.65;;;;;;;4.25;54.81;101903.50;8659233;33;20133;-75
2022/02/12 10:05:32;;;;;;;12.68;3.42;;;;;;;4.38;54.69;101902.19;8658668;33;20176;-74
2022/02/12 10:10:37;;;;;;;10.07;3.45;;;;;;;4.17;54.97;101896.63;8588559;33;20173;-74
2022/02/12 10:15:43;;;;;;;7.80;3.05;;;;;;;4.68;54.28;101887.03;8576528;33;22220;-74
2022/02/12 10:20:47;;;;;;;7.57;2.97;;;;;;;4.56;53.78;101880.34;8570966;33;20239;-74
2022/02/12 10:25:52;;;;;;;9.23;3.97;;;;;;;5.55;52.20;101872.56;8567430;33;20185;-74
2022/02/12 10:30:58;;;;;;;4.05;3.00;;;;;;;5.38;51.45;101866.97;8566733;33;20185;-74
2022/02/12 10:36:05;;;;;;;4.50;3.28;;;;;;;5.46;50.86;101855.09;8580349;33;20528;-75
2022/02/12 10:41:10;;;;;;;5.20;3.08;;;;;;;4.62;52.44;101856.19;8569577;33;21492;-74
2022/02/12 10:46:14;;;;;;;6.28;2.97;;;;;;;5.40;52.21;101833.13;8569955;33;20698;-74
2022/02/12 10:51:18;;;;;;;5.82;3.17;;;;;;;5.31;51.69;101830.78;8570205;33;20216;-74
2022/02/12 10:56:21;;;;;;;8.65;3.60;;;;;;;5.35;52.55;101824.41;8588616;33;20235;-75
2022/02/12 11:01:25;;;;;;;7.32;3.80;;;;;;;6.26;49.71;101811.19;8600467;33;20181;-74
2022/02/12 11:06:29;;;;;;;6.93;3.38;;;;;;;5.69;48.55;101806.25;8600544;33;20142;-75
2022/02/12 11:11:34;;;;;;;7.03;3.13;;;;;;;5.45;46.24;101799.19;8600225;33;20189;-75
2022/02/12 11:16:38;;;;;;;7.63;3.10;;;;;;;5.92;46.56;101793.81;8600358;33;21549;-75
2022/02/12 11:21:41;;;;;;;8.32;3.72;;;;;;;6.63;46.85;101778.47;8598032;33;20156;-75
2022/02/12 11:26:46;;;;;;;8.43;3.50;;;;;;;7.02;45.44;101761.69;8600312;33;20335;-76
2022/02/12 11:32:13;;;;;;;6.28;2.33;;;;;;;6.62;43.62;101755.38;8600169;33;20371;-76
2022/02/12 11:37:19;;;;;;;8.40;3.13;;;;;;;6.18;43.65;101747.44;8599742;33;20142;-75
2022/02/12 11:42:40;;;;;;;6.63;3.45;;;;;;;7.11;42.29;101733.72;8598455;33;20592;-76
2022/02/12 11:48:17;;;;;;;6.00;2.80;;;;;;;7.14;40.82;101730.91;8601607;33;20512;-75
2022/02/12 11:53:33;;;;;;;5.20;2.70;;;;;;;6.58;42.62;101711.94;8661016;33;20167;-74
2022/02/12 11:59:11;;;;;;;3.50;2.03;;;;;;;7.38;40.55;101705.72;8650080;33;20230;-74
2022/02/12 12:04:18;;;;;;;5.57;2.63;;;;;;;6.87;41.85;101701.78;8662930;33;20579;-74
2022/02/12 12:09:21;;;;;;;9.40;2.92;;;;;;;7.60;41.61;101684.16;8662010;33;20538;-75
2022/02/12 12:14:32;;;;;;;5.38;2.55;;;;;;;7.32;41.08;101675.72;8661527;33;20469;-73
2022/02/12 12:19:43;;;;;;;8.52;2.63;;;;;;;7.49;41.84;101670.44;8661409;33;20186;-75
2022/02/12 12:24:51;;;;;;;9.30;2.60;;;;;;;7.55;41.30;101669.28;8662065;33;20699;-75
2022/02/12 12:35:19;;;;;;;6.93;3.20;;;;;;;7.37;42.33;101661.19;8662434;33;20180;-76
2022/02/12 12:40:30;;;;;;;9.93;4.20;;;;;;;8.24;41.21;101652.47;8660673;33;20237;-75
2022/02/12 12:45:39;;;;;;;6.35;3.33;;;;;;;8.76;40.60;101633.72;8661589;33;20267;-75
2022/02/12 12:50:44;;;;;;;11.15;4.22;;;;;;;9.84;39.89;101615.16;8660602;33;20188;-73
2022/02/12 12:55:47;;;;;;;10.75;4.72;;;;;;;10.04;39.04;101604.16;8658408;33;20237;-74
2022/02/12 13:00:50;;;;;;;6.53;2.33;;;;;;;10.59;37.43;101602.63;8666607;33;20370;-76
2022/02/12 13:06:04;;;;;;;7.90;3.05;;;;;;;9.93;37.96;101591.38;8668965;33;22245;-75
2022/02/12 13:11:09;;;;;;;4.93;2.72;;;;;;;9.05;39.74;101597.28;8662765;33;20290;-76
2022/02/12 13:16:12;;;;;;;5.45;3.25;;;;;;;8.84;40.74;101589.47;8661168;33;20298;-75
2022/02/12 13:21:17;;;;;;;9.10;3.47;;;;;;;9.11;40.31;101578.19;8662570;33;20305;-75
2022/02/12 13:26:21;;;;;;;9.57;3.15;;;;;;;9.28;40.36;101571.88;8664355;33;20148;-75
2022/02/12 13:31:26;;;;;;;11.05;3.90;;;;;;;9.61;40.42;101561.00;8659788;33;21099;-75
2022/02/12 13:36:31;;;;;;;6.72;3.33;;;;;;;8.96;41.70;101568.31;8647779;33;20251;-75
2022/02/12 13:41:40;;;;;;;8.18;4.10;;;;;;;8.71;41.31;101542.88;8658835;33;21924;-75
2022/02/12 13:46:43;;;;;;;8.82;3.60;;;;;;;8.55;41.13;101532.13;8659805;33;20242;-75
2022/02/12 13:51:56;;;;;;;7.22;3.55;;;;;;;8.68;41.25;101518.06;8660285;33;20686;-74
2022/02/12 13:57:02;;;;;;;11.20;3.35;;;;;;;9.33;40.96;101492.03;8659578;33;20923;-75
2022/02/12 14:02:06;;;;;;;4.28;2.90;;;;;;;9.43;41.13;101484.28;8658977;33;20596;-74
2022/02/12 14:07:10;;;;;;;9.25;4.13;;;;;;;9.59;40.01;101471.69;8652333;33;20228;-75
2022/02/12 14:12:14;;;;;;;5.90;2.97;;;;;;;9.94;39.50;101466.94;8660501;33;20209;-74
2022/02/12 14:17:16;;;;;;;4.60;3.20;;;;;;;9.48;40.56;101460.75;8658482;33;20740;-74
2022/02/12 14:22:21;;;;;;;7.18;3.45;;;;;;;9.66;40.23;101458.81;8658182;33;20211;-76
2022/02/12 14:27:24;;;;;;;5.65;2.17;;;;;;;8.87;40.01;101458.97;8658573;33;20200;-76
2022/02/12 14:32:27;;;;;;;4.47;2.75;;;;;;;8.40;40.18;101437.41;8658566;33;20239;-75
2022/02/12 14:37:31;;;;;;;5.97;2.35;;;;;;;8.42;40.02;101436.44;8657779;33;20180;-73
2022/02/12 14:42:35;;;;;;;5.28;2.63;;;;;;;6.53;42.74;101438.09;8657651;33;20235;-75
2022/02/12 14:47:38;;;;;;;5.68;2.70;;;;;;;6.79;43.11;101444.84;8658629;33;20696;-75
2022/02/12 14:52:42;;;;;;;3.78;2.28;;;;;;;7.03;42.46;101427.63;8657686;33;20295;-76
2022/02/12 14:57:45;;;;;;;3.60;2.40;;;;;;;5.93;44.00;101415.03;8657690;33;20396;-75
2022/02/12 15:02:48;;;;;;;5.32;3.08;;;;;;;6.07;44.29;101408.22;8658837;33;20180;-75
2022/02/12 15:07:53;;;;;;;5.63;3.00;;;;;;;6.58;44.28;101393.31;8658583;33;20687;-76
2022/02/12 15:12:56;;;;;;;4.82;3.22;;;;;;;5.85;45.34;101384.31;8656971;33;20239;-75
2022/02/12 15:17:59;;;;;;;6.07;2.90;;;;;;;5.87;46.02;101383.31;8658201;33;20220;-74
2022/02/12 15:23:07;;;;;;;6.68;2.92;;;;;;;5.79;46.60;101369.47;8659414;33;20238;-76
2022/02/12 15:28:11;;;;;;;5.80;2.90;;;;;;;6.01;46.44;101368.47;8662094;33;20539;-75
2022/02/12 15:33:15;;;;;;;3.72;2.60;;;;;;;6.02;45.36;101363.06;8662732;33;20433;-74
2022/02/12 15:38:19;;;;;;;6.15;2.72;;;;;;;6.51;45.11;101342.03;8663546;33;20193;-75
2022/02/12 15:43:24;;;;;;;6.30;2.90;;;;;;;6.59;44.90;101328.31;8662239;33;20246;-76
2022/02/12 15:48:27;;;;;;;4.18;3.10;;;;;;;6.30;45.11;101327.06;8663211;33;20184;-75
2022/02/12 15:53:31;;;;;;;4.05;2.92;;;;;;;5.94;45.21;101318.06;8662042;33;20677;-74
2022/02/12 15:58:34;;;;;;;5.25;2.70;;;;;;;5.64;46.59;101319.50;8661336;33;20153;-75
2022/02/12 16:03:37;;;;;;;6.90;3.05;;;;;;;5.82;47.08;101300.00;8661980;33;20176;-75
2022/02/12 16:08:43;;;;;;;4.03;2.72;;;;;;;5.42;47.89;101299.13;8662410;33;20184;-74
2022/02/12 16:13:46;;;;;;;5.20;3.08;;;;;;;5.27;48.58;101287.38;8662088;33;21048;-73
2022/02/12 16:18:50;;;;;;;4.60;2.17;;;;;;;5.03;49.07;101270.66;8661720;33;20206;-74
2022/02/12 16:23:56;;;;;;;4.93;2.50;;;;;;;4.57;49.77;101272.59;8661159;33;20226;-73
2022/02/12 16:28:59;;;;;;;5.25;3.17;;;;;;;4.77;50.25;101262.91;8660609;33;20223;-73
2022/02/12 16:34:02;;;;;;;4.47;2.78;;;;;;;4.82;50.24;101271.56;8661273;33;20196;-73
2022/02/12 16:39:08;;;;;;;8.90;3.35;;;;;;;4.67;50.71;101262.44;8637795;33;20335;-73
2022/02/12 16:44:11;;;;;;;5.20;2.72;;;;;;;4.60;50.64;101253.84;8633739;33;20187;-75
2022/02/12 16:49:14;;;;;;;11.13;6.82;;;;;;;4.56;51.36;101262.91;8637651;33;20180;-74
2022/02/12 16:54:19;;;;;;;13.35;7.10;;;;;;;4.44;52.08;101263.41;8660348;33;20267;-75
2022/02/12 16:59:22;;;;;;;8.85;6.13;;;;;;;4.28;52.98;101251.66;8660438;33;20243;-74
2022/02/12 17:04:25;;;;;;;17.55;10.20;;;;;;;4.10;53.64;101254.13;8661364;33;20688;-75
2022/02/12 17:09:29;;;;;;;14.50;8.32;;;;;;;3.90;54.12;101249.63;8661900;33;20478;-74
2022/02/12 17:14:33;;;;;;;6.93;4.20;;;;;;;3.86;54.12;101266.59;8659763;33;21633;-74
2022/02/12 17:19:36;;;;;;;9.73;5.88;;;;;;;3.75;54.41;101259.97;8660098;33;20184;-74
2022/02/12 17:24:40;;;;;;;9.73;6.05;;;;;;;3.65;54.39;101260.34;8660191;33;20223;-74
2022/02/12 17:29:44;;;;;;;10.20;4.82;;;;;;;3.60;54.56;101245.50;8659642;33;20172;-74
2022/02/12 17:34:47;;;;;;;8.00;4.07;;;;;;;3.51;54.46;101241.38;8660522;33;22384;-74
2022/02/12 17:39:52;;;;;;;10.70;4.70;;;;;;;3.48;54.55;101241.50;8697146;33;20141;-73
2022/02/12 17:45:14;;;;;;;6.30;4.75;;;;;;;3.41;54.39;101245.34;8658824;33;20260;-73
2022/02/12 17:50:17;;;;;;;7.30;4.88;;;;;;;3.24;54.61;101225.59;8659617;33;21985;-75
2022/02/12 17:55:22;;;;;;;8.48;4.63;;;;;;;3.12;55.04;101227.81;8660971;33;20153;-74
2022/02/12 18:00:26;;;;;;;6.38;3.70;;;;;;;2.87;55.30;101231.34;8660029;33;20371;-73
2022/02/12 18:05:29;;;;;;;4.97;3.13;;;;;;;2.88;54.92;101234.84;8630755;33;20402;-72
2022/02/12 18:10:34;;;;;;;3.97;2.58;;;;;;;2.90;54.62;101236.53;8628361;33;20951;-74
2022/02/12 18:15:38;;;;;;;4.82;2.92;;;;;;;2.77;54.63;101228.16;8630253;33;20474;-72
2022/02/12 18:20:41;;;;;;;3.42;2.22;;;;;;;2.67;54.34;101226.75;8623608;33;20567;-72
2022/02/12 18:25:45;;;;;;;8.68;3.05;;;;;;;2.59;53.92;101224.34;8626387;33;20185;-72
2022/02/12 18:30:48;;;;;;;3.28;2.22;;;;;;;2.64;53.55;101208.28;8628621;33;20216;-72
2022/02/12 18:35:52;;;;;;;4.70;2.60;;;;;;;2.60;53.45;101199.53;8627908;33;20259;-73
2022/02/12 18:40:56;;;;;;;3.63;2.40;;;;;;;2.57;53.46;101201.44;8657689;33;20185;-73
2022/02/12 18:46:04;;;;;;;2.53;1.90;;;;;;;2.54;52.86;101196.25;8659952;33;20164;-72
2022/02/12 18:51:08;;;;;;;2.53;2.10;;;;;;;2.55;52.85;101201.53;8629339;33;20192;-73
2022/02/12 18:56:12;;;;;;;4.07;2.78;;;;;;;2.59;52.98;101194.31;8660039;33;21477;-72
2022/02/12 19:01:18;;;;;;;4.30;2.90;;;;;;;2.54;53.31;101186.50;8679177;33;20173;-72
2022/02/12 19:06:21;;;;;;;5.80;2.70;;;;;;;2.46;53.59;101191.19;8689224;33;20175;-72
2022/02/12 19:11:25;;;;;;;4.60;2.28;;;;;;;2.46;54.09;101180.56;8675092;33;20602;-72
2022/02/12 19:16:29;;;;;;;3.50;2.72;;;;;;;2.54;53.70;101175.03;8664868;33;20141;-72
2022/02/12 19:21:32;;;;;;;4.82;2.20;;;;;;;2.31;53.94;101168.72;8663965;33;20188;-73
2022/02/12 19:33:17;;;;;;;4.32;2.50;;;;;;;2.35;54.34;101157.06;8656991;33;20649;-74
2022/02/12 19:38:20;;;;;;;3.65;2.67;;;;;;;2.26;54.02;101149.44;8662561;33;21974;-72
2022/02/12 19:43:24;;;;;;;6.45;2.83;;;;;;;2.22;54.45;101141.63;8663259;33;20597;-75
2022/02/12 19:48:28;;;;;;;7.32;3.50;;;;;;;2.22;54.45;101142.50;8663244;33;20184;-73
2022/02/12 19:53:31;;;;;;;5.05;2.90;;;;;;;2.16;54.35;101138.28;8662920;33;20172;-75
2022/02/12 19:58:35;;;;;;;5.78;2.92;;;;;;;2.05;54.58;101132.47;8662048;33;21012;-73
2022/02/12 20:03:40;;;;;;;6.45;3.28;;;;;;;2.10;54.73;101127.03;8662657;33;20184;-72
2022/02/12 20:08:43;;;;;;;6.32;3.50;;;;;;;2.00;55.26;101115.84;8661459;33;20185;-74
2022/02/12 20:13:47;;;;;;;6.43;3.35;;;;;;;2.04;55.41;101114.84;8662011;33;20227;-72
2022/02/12 20:18:52;;;;;;;4.05;3.10;;;;;;;1.93;55.82;101114.34;8662757;33;20205;-73
2022/02/12 20:23:55;;;;;;;5.72;2.97;;;;;;;1.85;56.05;101109.28;8662731;33;20223;-72
2022/02/12 20:28:59;;;;;;;6.43;3.30;;;;;;;1.82;56.41;101103.25;8662711;33;20180;-74
2022/02/12 20:34:05;;;;;;;7.10;3.00;;;;;;;1.79;56.48;101083.00;8661993;33;20281;-72
2022/02/12 20:39:08;;;;;;;5.75;3.10;;;;;;;1.75;57.08;101076.06;8661231;33;20211;-72
2022/02/12 20:44:11;;;;;;;5.65;3.65;;;;;;;1.80;57.34;101067.97;8661713;33;20238;-73
2022/02/12 20:49:16;;;;;;;7.70;4.30;;;;;;;1.76;57.42;101061.06;8646644;33;21205;-72
2022/02/12 20:54:19;;;;;;;8.27;4.97;;;;;;;1.79;57.38;101056.53;8632633;33;20145;-73
2022/02/12 20:59:23;;;;;;;7.95;5.10;;;;;;;1.72;58.00;101036.44;8625799;33;20157;-73
2022/02/12 21:04:27;;;;;;;5.90;4.65;;;;;;;1.70;58.26;101049.75;8632032;33;20153;-73
2022/02/12 21:09:31;;;;;;;6.85;5.03;;;;;;;1.65;58.79;101049.03;8631286;33;22105;-73
2022/02/12 21:14:38;;;;;;;10.07;5.20;;;;;;;1.57;59.09;101043.13;8581431;33;20255;-72
2022/02/12 21:19:42;;;;;;;7.35;5.10;;;;;;;1.55;59.47;101031.72;8575175;33;20192;-72
2022/02/12 21:24:47;;;;;;;14.38;6.38;;;;;;;1.49;59.72;101035.44;8574419;33;20172;-74
2022/02/12 21:36:57;;;;;;;10.25;5.97;;;;;;;1.42;60.57;101010.06;8546228;33;20272;-72
2022/02/12 21:42:02;;;;;;;12.65;6.38;;;;;;;1.28;61.29;101010.50;8546427;33;20146;-71
2022/02/12 21:47:06;;;;;;;10.68;7.35;;;;;;;1.14;61.75;101003.94;8546104;33;20770;-74
2022/02/12 21:52:11;;;;;;;9.57;6.43;;;;;;;0.90;62.88;100998.50;8546823;33;20962;-72
2022/02/12 21:57:14;;;;;;;8.35;5.82;;;;;;;0.75;63.66;100989.28;8545889;33;20683;-72
2022/02/12 22:02:16;;;;;;;11.23;7.30;;;;;;;0.77;63.84;100983.94;8546295;33;21906;-72
2022/02/12 22:07:21;;;;;;;11.65;6.95;;;;;;;0.83;64.26;100983.75;8545171;33;20216;-72
2022/02/12 22:12:24;;;;;;;13.02;7.30;;;;;;;0.77;64.18;100983.94;8544141;33;20147;-73
2022/02/12 22:17:28;;;;;;;13.88;8.00;;;;;;;0.65;65.12;100989.59;8545772;33;20197;-74
2022/02/12 22:22:32;;;;;;;12.85;6.68;;;;;;;0.65;65.20;100995.75;8544801;33;21190;-73
2022/02/12 22:27:36;;;;;;;13.43;8.20;;;;;;;0.72;65.19;100986.72;8545172;33;20637;-72
2022/02/12 22:32:39;;;;;;;8.65;6.25;;;;;;;0.75;65.50;100975.19;8543470;33;20265;-73
2022/02/12 22:37:43;;;;;;;8.35;5.72;;;;;;;0.73;65.50;100969.06;8545067;33;20248;-73
2022/02/12 22:42:46;;;;;;;9.73;6.55;;;;;;;0.74;65.35;100955.81;8545435;33;20549;-73
2022/02/12 22:47:50;;;;;;;14.00;6.07;;;;;;;0.78;65.07;100959.22;8545270;33;20424;-73
2022/02/12 22:52:55;;;;;;;7.60;5.23;;;;;;;0.87;64.42;100950.13;8609532;33;20204;-73
2022/02/12 22:57:58;;;;;;;10.90;5.22;;;;;;;1.01;63.77;100956.69;8638327;33;20215;-73
2022/02/12 23:03:01;;;;;;;5.50;4.30;;;;;;;1.15;63.12;100947.44;8658320;33;20762;-72
2022/02/12 23:08:05;;;;;;;8.55;4.63;;;;;;;1.30;62.62;100952.25;8657779;33;20287;-72
2022/02/12 23:13:31;;;;;;;9.98;5.40;;;;;;;1.25;62.45;100944.44;8657725;33;20207;-73
2022/02/12 23:18:35;;;;;;;8.82;5.00;;;;;;;1.12;63.00;100947.56;8656882;33;20137;-73
2022/02/12 23:23:40;;;;;;;10.40;6.83;;;;;;;1.08;63.44;100930.06;8657927;33;20173;-73
2022/02/12 23:28:43;;;;;;;9.23;5.47;;;;;;;0.99;63.54;100933.88;8656942;33;20506;-73
2022/02/12 23:33:47;;;;;;;8.25;5.63;;;;;;;0.96;63.53;100924.25;8657085;33;20306;-73
2022/02/12 23:38:51;;;;;;;9.00;5.53;;;;;;;0.97;63.50;100923.31;8657090;33;20245;-74
2022/02/12 23:43:54;;;;;;;9.52;5.47;;;;;;;0.93;63.87;100919.03;8658759;33;20417;-73
2022/02/12 23:48:58;;;;;;;8.60;5.20;;;;;;;0.94;63.53;100906.69;8661381;33;20224;-73
2022/02/12 23:54:02;;;;;;;7.95;5.10;;;;;;;0.91;63.57;100898.88;8661616;33;20647;-72
2022/02/12 23:59:07;;;;;;;7.68;4.70;;;;;;;0.90;63.50;100890.03;8661350;33;20212;-73
